createdAt,value
2023-04-27T00:00:44.491Z,60.78
2023-04-27T00:03:16.964Z,60.38
2023-04-27T00:05:45.415Z,61.06
2023-04-27T00:08:14.200Z,60.36
2023-04-27T00:10:42.296Z,60.47
2023-04-27T00:13:10.627Z,60.21
2023-04-27T00:15:38.800Z,60.46
2023-04-27T00:18:07.110Z,60.87
2023-04-27T00:20:35.889Z,60.90
2023-04-27T00:23:04.145Z,61.14
2023-04-27T00:25:32.219Z,60.90
2023-04-27T00:28:00.391Z,60.96
2023-04-27T00:30:29.072Z,60.96
2023-04-27T00:32:57.372Z,61.25
2023-04-27T00:35:25.726Z,61.52
2023-04-27T00:37:55.360Z,61.44
2023-04-27T00:40:23.471Z,61.19
2023-04-27T00:42:51.784Z,60.70
2023-04-27T00:45:19.847Z,61.13
2023-04-27T00:47:48.214Z,61.15
2023-04-27T00:50:17.107Z,61.13
2023-04-27T00:52:45.719Z,61.11
2023-04-27T00:55:13.861Z,61.30
2023-04-27T00:57:42.041Z,61.64
2023-04-27T01:00:13.596Z,61.40
2023-04-27T01:02:42.270Z,61.74
2023-04-27T01:05:10.662Z,61.05
2023-04-27T01:07:40.663Z,61.03
2023-04-27T01:10:09.682Z,60.98
2023-04-27T01:12:37.946Z,60.95
2023-04-27T01:15:07.509Z,60.29
2023-04-27T01:17:36.017Z,60.44
2023-04-27T01:20:10.521Z,61.14
2023-04-27T01:22:39.229Z,60.49
2023-04-27T01:25:08.090Z,60.56
2023-04-27T01:27:36.293Z,60.77
2023-04-27T01:30:06.546Z,60.60
2023-04-27T01:32:37.685Z,61.03
2023-04-27T01:35:07.272Z,61.44
2023-04-27T01:37:35.878Z,61.03
2023-04-27T01:40:06.619Z,61.52
2023-04-27T01:42:34.844Z,60.73
2023-04-27T01:45:04.296Z,60.82
2023-04-27T01:47:33.381Z,60.49
2023-04-27T01:50:01.925Z,60.42
2023-04-27T01:52:30.222Z,60.48
2023-04-27T01:54:58.400Z,61.97
2023-04-27T01:57:27.030Z,62.39
2023-04-27T01:59:56.568Z,62.33
2023-04-27T02:02:24.822Z,62.01
2023-04-27T02:04:53.198Z,62.42
2023-04-27T02:07:21.561Z,61.86
2023-04-27T02:09:49.853Z,61.89
2023-04-27T02:12:17.946Z,62.12
2023-04-27T02:14:46.025Z,62.55
2023-04-27T02:17:14.235Z,62.39
2023-04-27T02:19:42.696Z,62.21
2023-04-27T02:22:11.137Z,61.87
2023-04-27T02:24:39.225Z,62.08
2023-04-27T02:27:07.394Z,62.84
2023-04-27T02:29:38.992Z,62.67
2023-04-27T02:32:07.785Z,63.53
2023-04-27T02:34:35.885Z,63.88
2023-04-27T02:37:04.525Z,64.19
2023-04-27T02:39:33.684Z,64.72
2023-04-27T02:42:03.080Z,65.73
2023-04-27T02:44:31.264Z,66.24
2023-04-27T02:46:59.450Z,66.37
2023-04-27T02:49:27.715Z,66.64
2023-04-27T02:51:56.899Z,67.25
2023-04-27T02:54:25.596Z,67.27
2023-04-27T02:56:53.958Z,67.51
2023-04-27T02:59:22.203Z,66.47
2023-04-27T03:01:50.503Z,67.17
2023-04-27T03:04:19.006Z,67.05
2023-04-27T03:06:47.580Z,65.91
2023-04-27T03:09:17.250Z,65.60
2023-04-27T03:11:45.515Z,64.64
2023-04-27T03:14:13.630Z,64.12
2023-04-27T03:16:41.818Z,64.03
2023-04-27T03:19:10.903Z,63.66
2023-04-27T03:21:38.902Z,63.66
2023-04-27T03:24:07.338Z,62.96
2023-04-27T03:26:35.710Z,62.90
2023-04-27T03:29:05.422Z,62.94
2023-04-27T03:31:33.715Z,62.29
2023-04-27T03:34:01.762Z,61.99
2023-04-27T03:36:29.932Z,61.86
2023-04-27T03:38:58.019Z,61.97
2023-04-27T03:41:26.414Z,61.23
2023-04-27T03:43:54.618Z,60.15
2023-04-27T03:46:23.003Z,59.16
2023-04-27T03:48:51.324Z,58.07
2023-04-27T03:51:19.475Z,56.26
2023-04-27T03:53:47.840Z,54.19
2023-04-27T03:56:15.966Z,53.39
2023-04-27T03:58:44.104Z,52.44
2023-04-27T04:01:23.126Z,49.90
2023-04-27T04:03:52.082Z,48.33
2023-04-27T04:06:20.933Z,47.39
2023-04-27T04:08:49.027Z,46.55
2023-04-27T04:11:17.603Z,45.11
2023-04-27T04:13:46.249Z,44.11
2023-04-27T04:16:14.449Z,43.45
2023-04-27T04:18:42.816Z,42.71
2023-04-27T04:21:11.789Z,42.31
2023-04-27T04:23:41.388Z,41.93
2023-04-27T04:26:10.160Z,41.37
2023-04-27T04:28:38.873Z,40.66
2023-04-27T04:31:09.695Z,40.53
2023-04-27T04:33:38.225Z,40.77
2023-04-27T04:36:06.901Z,40.85
2023-04-27T04:38:35.558Z,40.54
2023-04-27T04:41:03.921Z,40.35
2023-04-27T04:43:33.950Z,38.84
2023-04-27T04:46:04.898Z,37.89
2023-04-27T04:48:33.089Z,37.42
2023-04-27T04:51:01.218Z,36.67
2023-04-27T04:53:30.738Z,36.21
2023-04-27T04:56:09.071Z,36.15
2023-04-27T04:58:37.326Z,36.08
2023-04-27T05:01:06.951Z,35.82
2023-04-27T05:03:35.267Z,35.68
2023-04-27T05:06:03.738Z,35.38
2023-04-27T05:08:32.058Z,35.14
2023-04-27T05:11:00.544Z,35.10
2023-04-27T05:13:29.140Z,35.73
2023-04-27T05:15:57.537Z,35.84
2023-04-27T05:18:25.732Z,35.44
2023-04-27T05:20:53.763Z,34.67
2023-04-27T05:23:22.060Z,34.00
2023-04-27T05:25:50.104Z,33.95
2023-04-27T05:28:18.158Z,33.68
2023-04-27T05:30:46.354Z,32.82
2023-04-27T05:33:14.377Z,32.05
2023-04-27T05:35:42.477Z,30.90
2023-04-27T05:38:10.979Z,30.74
2023-04-27T05:40:39.162Z,30.45
2023-04-27T05:43:07.308Z,29.98
2023-04-27T05:45:39.735Z,29.49
2023-04-27T05:48:08.225Z,29.73
2023-04-27T05:50:36.429Z,30.34
2023-04-27T05:53:05.841Z,30.13
2023-04-27T05:55:34.105Z,30.35
2023-04-27T05:58:08.712Z,30.61
2023-04-27T06:00:38.546Z,30.68
2023-04-27T06:03:07.436Z,30.14
2023-04-27T06:05:36.015Z,30.37
2023-04-27T06:08:04.318Z,30.35
2023-04-27T06:10:32.565Z,29.75
2023-04-27T06:13:00.554Z,28.92
2023-04-27T06:15:28.617Z,29.20
2023-04-27T06:17:57.136Z,29.49
2023-04-27T06:20:25.502Z,29.71
2023-04-27T06:22:53.685Z,30.30
2023-04-27T06:25:24.448Z,30.53
2023-04-27T06:27:56.454Z,31.13
2023-04-27T06:30:25.422Z,30.81
2023-04-27T06:32:53.714Z,30.23
2023-04-27T06:35:22.388Z,30.04
2023-04-27T06:37:50.555Z,29.34
2023-04-27T06:40:18.634Z,29.72
2023-04-27T06:42:47.004Z,29.08
2023-04-27T06:45:15.080Z,28.93
2023-04-27T06:47:43.388Z,29.20
2023-04-27T06:50:11.854Z,29.18
2023-04-27T06:52:40.092Z,28.91
2023-04-27T06:55:08.694Z,28.94
2023-04-27T06:57:36.887Z,28.93
2023-04-27T07:00:05.964Z,29.29
2023-04-27T07:02:34.469Z,29.31
2023-04-27T07:05:03.053Z,29.21
2023-04-27T07:07:31.366Z,29.89
2023-04-27T07:09:59.470Z,29.40
2023-04-27T07:12:27.518Z,29.18
2023-04-27T07:14:55.824Z,28.73
2023-04-27T07:17:23.890Z,28.49
2023-04-27T07:19:52.091Z,28.79
2023-04-27T07:22:20.371Z,27.90
2023-04-27T07:24:48.404Z,27.53
2023-04-27T07:27:16.689Z,27.95
2023-04-27T07:29:45.177Z,27.42
2023-04-27T07:32:13.566Z,27.41
2023-04-27T07:34:52.795Z,27.01
2023-04-27T07:37:24.125Z,26.26
2023-04-27T07:39:53.264Z,26.71
2023-04-27T07:42:25.287Z,27.07
2023-04-27T07:44:54.377Z,26.00
2023-04-27T07:47:22.487Z,24.62
2023-04-27T07:49:51.121Z,23.74
2023-04-27T07:52:19.226Z,23.18
2023-04-27T07:54:47.268Z,23.57
2023-04-27T07:57:15.846Z,23.23
2023-04-27T07:59:43.888Z,24.14
2023-04-27T08:02:19.629Z,25.49
2023-04-27T08:04:50.052Z,25.11
2023-04-27T08:07:19.639Z,24.59
2023-04-27T08:09:52.418Z,24.82
2023-04-27T08:12:20.857Z,24.14
2023-04-27T08:14:48.862Z,23.71
2023-04-27T08:17:18.569Z,23.01
2023-04-27T08:19:46.760Z,22.36
2023-04-27T08:22:14.958Z,23.01
2023-04-27T08:24:43.210Z,23.31
2023-04-27T08:27:11.405Z,23.51
2023-04-27T08:29:39.507Z,23.89
2023-04-27T08:32:08.415Z,23.34
2023-04-27T08:34:36.570Z,23.31
2023-04-27T08:37:04.935Z,21.35
2023-04-27T08:39:33.626Z,20.19
2023-04-27T08:42:01.713Z,20.67
2023-04-27T08:44:29.911Z,22.75
2023-04-27T08:46:58.248Z,23.10
2023-04-27T08:49:26.935Z,24.33
2023-04-27T08:51:55.416Z,24.98
2023-04-27T08:54:23.518Z,25.48
2023-04-27T08:56:51.761Z,25.29
2023-04-27T08:59:19.841Z,24.79
2023-04-27T09:01:49.489Z,23.99
2023-04-27T09:04:18.685Z,23.97
2023-04-27T09:06:47.018Z,23.92
2023-04-27T09:09:23.653Z,23.78
2023-04-27T09:11:52.114Z,22.76
2023-04-27T09:14:22.696Z,22.19
2023-04-27T09:16:58.080Z,22.18
2023-04-27T09:19:30.314Z,23.10
2023-04-27T09:22:11.073Z,24.58
2023-04-27T09:24:39.357Z,25.67
2023-04-27T09:27:09.006Z,26.25
2023-04-27T09:29:38.519Z,26.35
2023-04-27T09:32:17.311Z,27.43
2023-04-27T09:34:45.773Z,28.41
2023-04-27T09:37:15.164Z,29.32
2023-04-27T09:39:43.545Z,29.71
2023-04-27T09:42:13.267Z,30.59
2023-04-27T09:44:41.420Z,31.20
2023-04-27T09:47:11.258Z,31.10
2023-04-27T09:49:39.628Z,29.93
2023-04-27T09:52:07.791Z,28.61
2023-04-27T09:54:37.498Z,28.67
2023-04-27T09:57:22.111Z,29.07
2023-04-27T10:00:11.213Z,29.08
2023-04-27T10:03:11.700Z,29.08
2023-04-27T10:06:01.629Z,28.08
2023-04-27T10:08:30.315Z,28.47
2023-04-27T10:10:58.600Z,28.38
2023-04-27T10:13:27.159Z,27.59
2023-04-27T10:15:55.562Z,27.84
2023-04-27T10:18:30.712Z,27.75
2023-04-27T10:21:11.186Z,28.23
2023-04-27T10:23:48.526Z,27.76
2023-04-27T10:26:26.738Z,27.41
2023-04-27T10:29:09.356Z,27.01
2023-04-27T10:31:44.255Z,27.98
2023-04-27T10:34:19.750Z,27.74
2023-04-27T10:36:49.467Z,27.85
2023-04-27T10:39:19.054Z,27.83
2023-04-27T10:41:54.816Z,27.81
2023-04-27T10:44:28.937Z,27.30
2023-04-27T10:47:02.164Z,26.86
2023-04-27T10:49:31.451Z,25.74
2023-04-27T10:52:03.071Z,26.55
2023-04-27T10:54:32.428Z,25.90
2023-04-27T10:57:09.152Z,25.88
2023-04-27T10:59:57.288Z,25.40
2023-04-27T11:02:27.978Z,26.45
2023-04-27T11:04:56.921Z,27.80
2023-04-27T11:07:26.704Z,28.73
2023-04-27T11:09:55.939Z,29.55
2023-04-27T11:12:24.338Z,28.78
2023-04-27T11:14:58.619Z,28.07
2023-04-27T11:17:30.759Z,28.20
2023-04-27T11:19:59.055Z,28.07
2023-04-27T11:22:27.829Z,27.77
2023-04-27T11:24:56.620Z,27.45
2023-04-27T11:27:25.530Z,27.28
2023-04-27T11:29:53.536Z,27.52
2023-04-27T11:32:23.220Z,28.10
2023-04-27T11:34:54.650Z,28.34
2023-04-27T11:37:26.040Z,27.69
2023-04-27T11:39:55.029Z,27.09
2023-04-27T11:42:31.695Z,27.09
2023-04-27T11:45:06.183Z,27.50
2023-04-27T11:47:36.280Z,27.74
2023-04-27T11:50:08.103Z,27.58
2023-04-27T11:52:39.208Z,27.31
2023-04-27T11:55:09.358Z,27.27
2023-04-27T11:57:39.028Z,28.18
2023-04-27T12:00:11.467Z,28.64
2023-04-27T12:02:44.118Z,28.94
2023-04-27T12:05:13.947Z,29.53
2023-04-27T12:07:43.661Z,29.32
2023-04-27T12:10:12.375Z,28.91
2023-04-27T12:12:40.956Z,28.45
2023-04-27T12:15:09.848Z,28.31
2023-04-27T12:17:39.320Z,28.69
2023-04-27T12:20:08.582Z,28.91
2023-04-27T12:22:37.362Z,28.70
2023-04-27T12:25:06.121Z,28.18
2023-04-27T12:27:34.295Z,27.32
2023-04-27T12:30:02.619Z,27.86
2023-04-27T12:32:30.868Z,28.50
2023-04-27T12:34:59.217Z,28.05
2023-04-27T12:37:27.272Z,28.26
2023-04-27T12:39:55.679Z,29.06
2023-04-27T12:42:24.679Z,29.31
2023-04-27T12:44:53.552Z,29.69
2023-04-27T12:47:46.047Z,29.05
2023-04-27T12:50:11.197Z,29.08
2023-04-27T12:52:39.350Z,29.12
2023-04-27T12:55:17.952Z,29.64
2023-04-27T12:57:53.398Z,30.17
2023-04-27T13:00:21.614Z,28.83
2023-04-27T13:02:50.904Z,28.27
2023-04-27T13:05:19.155Z,27.47
2023-04-27T13:07:47.254Z,27.88
2023-04-27T13:10:15.516Z,28.14
2023-04-27T13:12:44.104Z,28.30
2023-04-27T13:15:12.220Z,27.97
2023-04-27T13:17:43.025Z,27.73
2023-04-27T13:20:12.725Z,27.09
2023-04-27T13:22:41.916Z,26.71
2023-04-27T13:25:10.711Z,27.91
2023-04-27T13:27:38.871Z,28.79
2023-04-27T13:30:08.405Z,28.44
2023-04-27T13:32:36.651Z,28.76
2023-04-27T13:35:05.662Z,29.02
2023-04-27T13:37:33.949Z,28.82
2023-04-27T13:40:02.339Z,28.41
2023-04-27T13:42:30.834Z,28.84
2023-04-27T13:44:58.960Z,29.66
2023-04-27T13:47:29.342Z,29.83
2023-04-27T13:49:57.453Z,29.87
2023-04-27T13:52:25.733Z,29.58
2023-04-27T13:54:53.748Z,29.81
2023-04-27T13:57:21.892Z,29.89
2023-04-27T13:59:50.011Z,30.47
2023-04-27T14:02:18.329Z,30.46
2023-04-27T14:04:46.608Z,29.95
2023-04-27T14:07:15.712Z,29.54
2023-04-27T14:09:43.993Z,29.40
2023-04-27T14:12:12.746Z,29.77
2023-04-27T14:14:41.236Z,29.37
2023-04-27T14:17:09.407Z,29.33
2023-04-27T14:19:38.100Z,29.57
2023-04-27T14:22:08.244Z,28.84
2023-04-27T14:24:36.485Z,29.14
2023-04-27T14:27:04.657Z,28.53
2023-04-27T14:29:32.835Z,28.74
2023-04-27T14:32:00.910Z,29.67
2023-04-27T14:34:29.283Z,29.99
2023-04-27T14:36:57.460Z,29.65
2023-04-27T14:39:27.700Z,30.21
2023-04-27T14:41:55.965Z,30.56
2023-04-27T14:44:24.662Z,30.40
2023-04-27T14:46:52.785Z,29.94
2023-04-27T14:49:21.299Z,30.04
2023-04-27T14:51:49.565Z,29.51
2023-04-27T14:54:17.711Z,29.83
2023-04-27T14:56:46.461Z,30.38
2023-04-27T14:59:14.749Z,30.01
2023-04-27T15:01:43.333Z,29.82
2023-04-27T15:04:12.550Z,30.13
2023-04-27T15:06:41.059Z,30.74
2023-04-27T15:09:09.545Z,30.52
2023-04-27T15:11:37.972Z,30.39
2023-04-27T15:14:06.434Z,30.22
2023-04-27T15:16:34.637Z,30.92
2023-04-27T15:19:03.776Z,30.73
2023-04-27T15:21:32.556Z,30.28
2023-04-27T15:24:00.934Z,30.92
2023-04-27T15:26:29.101Z,30.99
2023-04-27T15:28:59.557Z,30.50
2023-04-27T15:31:28.081Z,29.97
2023-04-27T15:33:56.391Z,29.72
2023-04-27T15:36:26.930Z,30.58
2023-04-27T15:38:55.266Z,30.76
2023-04-27T15:41:23.587Z,31.07
2023-04-27T15:43:52.456Z,31.27
2023-04-27T15:46:20.636Z,31.56
2023-04-27T15:48:49.035Z,31.05
2023-04-27T15:51:17.084Z,30.97
2023-04-27T15:53:45.145Z,30.78
2023-04-27T15:56:13.627Z,31.51
2023-04-27T15:58:41.879Z,31.55
2023-04-27T16:01:09.998Z,32.08
2023-04-27T16:03:38.314Z,31.70
2023-04-27T16:06:07.235Z,31.74
2023-04-27T16:08:36.367Z,32.14
2023-04-27T16:11:04.514Z,32.96
2023-04-27T16:13:32.835Z,33.03
2023-04-27T16:16:01.197Z,32.58
2023-04-27T16:18:29.486Z,32.11
2023-04-27T16:20:58.839Z,31.00
2023-04-27T16:23:27.313Z,30.16
2023-04-27T16:25:55.479Z,29.99
2023-04-27T16:28:23.716Z,30.53
2023-04-27T16:30:52.889Z,30.97
2023-04-27T16:33:21.422Z,30.81
2023-04-27T16:35:50.049Z,31.18
2023-04-27T16:38:18.345Z,31.29
2023-04-27T16:40:46.527Z,31.37
2023-04-27T16:43:14.762Z,31.60
2023-04-27T16:45:43.034Z,31.66
2023-04-27T16:48:12.234Z,32.41
2023-04-27T16:50:41.129Z,33.11
2023-04-27T16:53:13.737Z,32.98
2023-04-27T16:55:41.895Z,32.49
2023-04-27T16:58:10.112Z,32.27
2023-04-27T17:00:40.290Z,33.17
2023-04-27T17:03:09.811Z,32.92
2023-04-27T17:05:38.157Z,33.14
2023-04-27T17:08:06.486Z,33.53
2023-04-27T17:10:36.788Z,32.85
2023-04-27T17:13:06.031Z,33.19
2023-04-27T17:15:34.133Z,32.65
2023-04-27T17:18:04.928Z,32.59
2023-04-27T17:20:33.238Z,33.16
2023-04-27T17:23:01.624Z,33.09
2023-04-27T17:25:29.817Z,33.37
2023-04-27T17:27:59.536Z,33.66
2023-04-27T17:30:29.385Z,33.19
2023-04-27T17:32:57.952Z,32.91
2023-04-27T17:35:26.968Z,33.08
2023-04-27T17:37:55.068Z,33.19
2023-04-27T17:40:23.229Z,33.15
2023-04-27T17:42:51.609Z,33.90
2023-04-27T17:45:19.863Z,33.84
2023-04-27T17:47:48.919Z,33.74
2023-04-27T17:50:17.123Z,33.61
2023-04-27T17:52:47.653Z,34.30
2023-04-27T17:55:15.944Z,34.23
2023-04-27T17:57:44.388Z,34.34
2023-04-27T18:00:13.431Z,33.61
2023-04-27T18:02:42.089Z,34.01
2023-04-27T18:05:10.571Z,34.85
2023-04-27T18:07:38.960Z,34.82
2023-04-27T18:10:08.191Z,34.57
2023-04-27T18:12:36.282Z,34.71
2023-04-27T18:15:06.960Z,35.11
2023-04-27T18:17:38.155Z,35.32
2023-04-27T18:20:10.143Z,35.52
2023-04-27T18:22:40.368Z,35.42
2023-04-27T18:25:10.027Z,35.65
2023-04-27T18:27:38.894Z,35.10
2023-04-27T18:30:10.893Z,35.13
2023-04-27T18:32:39.245Z,34.63
2023-04-27T18:35:08.148Z,34.12
2023-04-27T18:37:36.274Z,34.39
2023-04-27T18:40:06.080Z,34.28
2023-04-27T18:42:34.430Z,34.22
2023-04-27T18:45:02.746Z,34.92
2023-04-27T18:47:30.824Z,34.84
2023-04-27T18:49:58.907Z,34.81
2023-04-27T18:52:27.467Z,34.75
2023-04-27T18:54:55.832Z,35.32
2023-04-27T18:57:24.811Z,35.11
2023-04-27T18:59:52.901Z,35.13
2023-04-27T19:02:21.219Z,35.10
2023-04-27T19:04:56.715Z,35.34
2023-04-27T19:07:30.618Z,35.37
2023-04-27T19:09:59.329Z,35.18
2023-04-27T19:12:27.616Z,35.23
2023-04-27T19:14:55.965Z,34.70
2023-04-27T19:17:24.468Z,34.05
2023-04-27T19:19:52.816Z,34.09
2023-04-27T19:22:21.102Z,34.52
2023-04-27T19:24:49.473Z,34.54
2023-04-27T19:27:17.775Z,35.23
2023-04-27T19:29:54.931Z,35.39
2023-04-27T19:32:27.912Z,34.59
2023-04-27T19:34:58.036Z,34.28
2023-04-27T19:37:28.065Z,35.16
2023-04-27T19:39:56.535Z,35.29
2023-04-27T19:42:25.042Z,35.03
2023-04-27T19:44:53.319Z,34.66
2023-04-27T19:47:21.300Z,34.67
2023-04-27T19:49:49.358Z,35.10
2023-04-27T19:52:17.609Z,34.74
2023-04-27T19:54:51.539Z,35.13
2023-04-27T19:57:20.200Z,35.06
2023-04-27T19:59:48.349Z,35.42
2023-04-27T20:02:17.453Z,34.79
2023-04-27T20:04:46.179Z,35.12
2023-04-27T20:07:14.418Z,34.58
2023-04-27T20:09:42.744Z,34.39
2023-04-27T20:12:23.754Z,34.75
2023-04-27T20:14:57.323Z,34.88
2023-04-27T20:17:26.319Z,34.72
2023-04-27T20:19:56.570Z,34.34
2023-04-27T20:22:24.952Z,33.91
2023-04-27T20:24:53.263Z,33.97
2023-04-27T20:27:21.422Z,34.31
2023-04-27T20:29:49.613Z,34.79
2023-04-27T20:32:17.753Z,34.40
2023-04-27T20:34:45.821Z,34.78
2023-04-27T20:37:13.998Z,34.70
2023-04-27T20:39:42.245Z,35.07
2023-04-27T20:42:12.726Z,35.61
2023-04-27T20:44:40.844Z,35.27
2023-04-27T20:47:08.940Z,35.01
2023-04-27T20:49:37.018Z,35.19
2023-04-27T20:52:05.157Z,35.19
2023-04-27T20:54:33.457Z,35.42
2023-04-27T20:57:02.392Z,35.08
2023-04-27T20:59:30.660Z,35.88
2023-04-27T21:01:58.899Z,35.53
2023-04-27T21:04:27.245Z,35.85
2023-04-27T21:06:55.407Z,35.50
2023-04-27T21:09:23.709Z,35.21
2023-04-27T21:11:52.103Z,35.43
2023-04-27T21:14:20.586Z,35.69
2023-04-27T21:16:49.007Z,35.70
2023-04-27T21:19:17.854Z,35.76
2023-04-27T21:21:46.023Z,35.94
2023-04-27T21:24:14.429Z,35.83
2023-04-27T21:26:42.982Z,35.65
2023-04-27T21:29:11.438Z,35.75
2023-04-27T21:31:39.670Z,36.02
2023-04-27T21:34:08.421Z,36.55
2023-04-27T21:36:37.440Z,36.84
2023-04-27T21:39:06.098Z,36.33
2023-04-27T21:41:34.893Z,36.48
2023-04-27T21:44:03.695Z,36.06
2023-04-27T21:46:32.082Z,36.19
2023-04-27T21:49:00.341Z,36.49
2023-04-27T21:51:29.008Z,36.45
2023-04-27T21:53:57.188Z,35.98
2023-04-27T21:56:25.298Z,36.02
2023-04-27T21:58:55.370Z,36.32
2023-04-27T22:01:23.711Z,36.68
2023-04-27T22:03:52.723Z,37.10
2023-04-27T22:06:21.968Z,36.38
2023-04-27T22:08:50.372Z,36.63
2023-04-27T22:11:18.508Z,36.62
2023-04-27T22:13:46.658Z,36.59
2023-04-27T22:16:15.012Z,36.79
2023-04-27T22:18:43.214Z,36.81
2023-04-27T22:21:13.017Z,36.69
2023-04-27T22:23:41.297Z,36.63
2023-04-27T22:26:09.415Z,38.72
2023-04-27T22:28:37.453Z,40.61
2023-04-27T22:31:06.171Z,40.88
2023-04-27T22:33:34.571Z,41.50
2023-04-27T22:36:02.810Z,41.61
2023-04-27T22:38:31.426Z,41.82
2023-04-27T22:40:59.609Z,41.92
2023-04-27T22:43:27.810Z,41.36
2023-04-27T22:45:56.089Z,41.11
2023-04-27T22:48:24.260Z,41.15
2023-04-27T22:50:52.637Z,40.81
2023-04-27T22:53:21.323Z,40.73
2023-04-27T22:55:49.499Z,41.51
2023-04-27T22:58:18.482Z,41.92
2023-04-27T23:00:46.745Z,41.90
2023-04-27T23:03:15.211Z,41.71
2023-04-27T23:05:43.723Z,42.23
2023-04-27T23:08:13.453Z,42.69
2023-04-27T23:10:41.625Z,42.73
2023-04-27T23:13:11.312Z,42.66
2023-04-27T23:15:39.730Z,42.31
2023-04-27T23:18:08.110Z,42.39
2023-04-27T23:20:36.540Z,42.52
2023-04-27T23:23:04.640Z,42.56
2023-04-27T23:25:33.815Z,42.65
2023-04-27T23:28:03.117Z,42.96
2023-04-27T23:30:32.650Z,42.58
2023-04-27T23:33:00.648Z,42.19
2023-04-27T23:35:29.913Z,42.42
2023-04-27T23:37:58.340Z,42.54
2023-04-27T23:40:26.637Z,43.03
2023-04-27T23:42:55.948Z,43.31
2023-04-27T23:45:24.312Z,43.33
2023-04-27T23:47:52.829Z,43.25
2023-04-27T23:50:21.066Z,43.22
2023-04-27T23:52:49.855Z,43.41
2023-04-27T23:55:18.646Z,43.82
2023-04-27T23:57:46.952Z,44.53
